logo
Search for airport 
image banner adimage banner adimage banner ad
image banner ad

SETB - Timbre

Located in Buena F, Ecuador

ICAO - , IATA -

Data provided by Airmate  

General information

Coordinates: N0°48'59" W79°36'30"
Elevation is 148 feet MSL.
Magnetic variation is -3° East
View others Airports in Esmeraldas

Operational data

Special qualification required
Current time UTC:
Current local time:
METAR: SETN 132000Z 31005KT 270V350 9999 -DZ BKN030 BKN100 28/25 Q1009 RMK A2980
View NOTAMs / SUP AIP / TFR affecting this airport [VIEW]
Communications frequencies: [VIEW]

Runways:

RWY identifierQFULength (ft)Width (ft)SurfaceLDA (ft)
29291°277818ASPH
11111°277818ASPH

Airport contact information

Address: Buena F Ecuador

Satellite view of SETB